TAF KSDF
KSDF 090532Z 0906/1012 VRB03KT P6SM BKN250 FM091400 15009KT P6SM BKN250 FM091700 18013G23KT P6SM SCT250 FM092300 20011KT P6SM OVC050 FM100400 20007KT P6SM OVC015 FM100900 17005KT P6SM OVC007=
METAR KSDF
WC KSDF
WS KSDF
WV KSDF